sensor_id;sensor_type;location;lat;lon;timestamp;temperature;humidity
41427;DHT22;27171;51.812;19.514;2023-12-20T00:01:28;5.60;99.90
41427;DHT22;27171;51.812;19.514;2023-12-20T00:04:29;5.60;99.90
41427;DHT22;27171;51.812;19.514;2023-12-20T00:07:30;5.60;99.90
41427;DHT22;27171;51.812;19.514;2023-12-20T00:10:31;5.60;99.90
41427;DHT22;27171;51.812;19.514;2023-12-20T00:13:31;5.60;99.90
41427;DHT22;27171;51.812;19.514;2023-12-20T00:16:32;5.60;99.90
41427;DHT22;27171;51.812;19.514;2023-12-20T00:19:33;5.60;99.90
41427;DHT22;27171;51.812;19.514;2023-12-20T00:22:34;5.60;99.90
41427;DHT22;27171;51.812;19.514;2023-12-20T00:25:35;5.60;99.90
41427;DHT22;27171;51.812;19.514;2023-12-20T00:28:36;5.60;99.90
41427;DHT22;27171;51.812;19.514;2023-12-20T00:31:36;5.60;99.90
41427;DHT22;27171;51.812;19.514;2023-12-20T00:34:37;5.60;99.90
41427;DHT22;27171;51.812;19.514;2023-12-20T00:37:39;5.60;99.90
41427;DHT22;27171;51.812;19.514;2023-12-20T00:40:39;5.60;99.90
41427;DHT22;27171;51.812;19.514;2023-12-20T00:43:40;5.60;99.90
41427;DHT22;27171;51.812;19.514;2023-12-20T00:46:41;5.60;99.90
41427;DHT22;27171;51.812;19.514;2023-12-20T00:49:42;5.60;99.90
41427;DHT22;27171;51.812;19.514;2023-12-20T00:52:43;5.70;99.90
41427;DHT22;27171;51.812;19.514;2023-12-20T00:55:44;5.60;99.90
41427;DHT22;27171;51.812;19.514;2023-12-20T00:58:45;5.70;99.90
41427;DHT22;27171;51.812;19.514;2023-12-20T01:01:46;5.70;99.90
41427;DHT22;27171;51.812;19.514;2023-12-20T01:04:47;5.70;99.90
41427;DHT22;27171;51.812;19.514;2023-12-20T01:07:48;5.70;99.90
41427;DHT22;27171;51.812;19.514;2023-12-20T01:10:49;5.70;99.90
41427;DHT22;27171;51.812;19.514;2023-12-20T01:13:50;5.80;99.90
41427;DHT22;27171;51.812;19.514;2023-12-20T01:16:51;5.80;99.90
41427;DHT22;27171;51.812;19.514;2023-12-20T01:19:52;5.70;99.90
41427;DHT22;27171;51.812;19.514;2023-12-20T01:22:52;5.80;99.90
41427;DHT22;27171;51.812;19.514;2023-12-20T01:25:53;5.80;99.90
41427;DHT22;27171;51.812;19.514;2023-12-20T01:28:54;5.80;99.90
41427;DHT22;27171;51.812;19.514;2023-12-20T01:31:55;5.80;99.90
41427;DHT22;27171;51.812;19.514;2023-12-20T01:34:56;5.80;99.90
41427;DHT22;27171;51.812;19.514;2023-12-20T01:37:57;5.90;99.90
41427;DHT22;27171;51.812;19.514;2023-12-20T01:40:58;5.80;99.90
41427;DHT22;27171;51.812;19.514;2023-12-20T01:43:59;5.90;99.90
41427;DHT22;27171;51.812;19.514;2023-12-20T01:47:00;5.90;99.90
41427;DHT22;27171;51.812;19.514;2023-12-20T01:50:01;5.90;99.90
41427;DHT22;27171;51.812;19.514;2023-12-20T01:53:02;5.90;99.90
41427;DHT22;27171;51.812;19.514;2023-12-20T01:56:04;5.90;99.90
41427;DHT22;27171;51.812;19.514;2023-12-20T01:59:05;5.90;99.90
41427;DHT22;27171;51.812;19.514;2023-12-20T02:02:06;5.90;99.90
41427;DHT22;27171;51.812;19.514;2023-12-20T02:05:08;5.90;99.90
41427;DHT22;27171;51.812;19.514;2023-12-20T02:08:09;5.90;99.90
41427;DHT22;27171;51.812;19.514;2023-12-20T02:11:10;5.90;99.90
41427;DHT22;27171;51.812;19.514;2023-12-20T02:14:11;5.90;99.90
41427;DHT22;27171;51.812;19.514;2023-12-20T02:17:12;6.00;99.90
41427;DHT22;27171;51.812;19.514;2023-12-20T02:20:13;5.90;99.90
41427;DHT22;27171;51.812;19.514;2023-12-20T02:23:14;5.90;99.90
41427;DHT22;27171;51.812;19.514;2023-12-20T02:26:15;5.90;99.90
41427;DHT22;27171;51.812;19.514;2023-12-20T02:29:16;5.90;99.90
41427;DHT22;27171;51.812;19.514;2023-12-20T02:32:17;5.90;99.90
41427;DHT22;27171;51.812;19.514;2023-12-20T02:35:19;5.90;99.90
41427;DHT22;27171;51.812;19.514;2023-12-20T02:38:20;5.90;99.90
41427;DHT22;27171;51.812;19.514;2023-12-20T02:41:21;5.90;99.90
41427;DHT22;27171;51.812;19.514;2023-12-20T02:44:22;5.90;99.90
41427;DHT22;27171;51.812;19.514;2023-12-20T02:47:23;5.90;99.90
41427;DHT22;27171;51.812;19.514;2023-12-20T02:50:24;5.90;99.90
41427;DHT22;27171;51.812;19.514;2023-12-20T02:53:25;5.90;99.90
41427;DHT22;27171;51.812;19.514;2023-12-20T02:56:25;5.80;99.90
41427;DHT22;27171;51.812;19.514;2023-12-20T02:59:26;5.80;99.90
41427;DHT22;27171;51.812;19.514;2023-12-20T03:02:27;5.80;99.90
41427;DHT22;27171;51.812;19.514;2023-12-20T03:05:28;5.90;99.90
41427;DHT22;27171;51.812;19.514;2023-12-20T03:08:29;5.90;99.90
41427;DHT22;27171;51.812;19.514;2023-12-20T03:11:30;5.90;99.90
41427;DHT22;27171;51.812;19.514;2023-12-20T03:14:31;5.90;99.90
41427;DHT22;27171;51.812;19.514;2023-12-20T03:17:32;5.90;99.90
41427;DHT22;27171;51.812;19.514;2023-12-20T03:20:32;5.90;99.90
41427;DHT22;27171;51.812;19.514;2023-12-20T03:23:33;5.90;99.90
41427;DHT22;27171;51.812;19.514;2023-12-20T03:26:34;5.90;99.90
41427;DHT22;27171;51.812;19.514;2023-12-20T03:29:35;5.90;99.90
41427;DHT22;27171;51.812;19.514;2023-12-20T03:32:36;5.90;99.90
41427;DHT22;27171;51.812;19.514;2023-12-20T03:35:37;5.90;99.90
41427;DHT22;27171;51.812;19.514;2023-12-20T03:38:39;5.90;99.90
41427;DHT22;27171;51.812;19.514;2023-12-20T03:41:40;5.90;99.90
41427;DHT22;27171;51.812;19.514;2023-12-20T03:44:41;5.90;99.90
41427;DHT22;27171;51.812;19.514;2023-12-20T03:47:42;5.80;99.90
41427;DHT22;27171;51.812;19.514;2023-12-20T03:50:43;5.80;99.90
41427;DHT22;27171;51.812;19.514;2023-12-20T03:53:43;5.80;99.90
41427;DHT22;27171;51.812;19.514;2023-12-20T03:56:44;5.90;99.90
41427;DHT22;27171;51.812;19.514;2023-12-20T03:59:46;5.90;99.90
41427;DHT22;27171;51.812;19.514;2023-12-20T04:02:47;5.80;99.90
41427;DHT22;27171;51.812;19.514;2023-12-20T04:05:48;5.80;99.90
41427;DHT22;27171;51.812;19.514;2023-12-20T04:08:48;5.80;99.90
41427;DHT22;27171;51.812;19.514;2023-12-20T04:11:49;5.80;99.90
41427;DHT22;27171;51.812;19.514;2023-12-20T04:14:50;5.80;99.90
41427;DHT22;27171;51.812;19.514;2023-12-20T04:17:51;5.80;99.90
41427;DHT22;27171;51.812;19.514;2023-12-20T04:20:52;5.70;99.90
41427;DHT22;27171;51.812;19.514;2023-12-20T04:23:53;5.70;99.90
41427;DHT22;27171;51.812;19.514;2023-12-20T04:26:54;5.70;99.90
41427;DHT22;27171;51.812;19.514;2023-12-20T04:29:55;5.70;99.90
41427;DHT22;27171;51.812;19.514;2023-12-20T04:32:55;5.70;99.90
41427;DHT22;27171;51.812;19.514;2023-12-20T04:35:56;5.70;99.90
41427;DHT22;27171;51.812;19.514;2023-12-20T04:38:57;5.70;99.90
41427;DHT22;27171;51.812;19.514;2023-12-20T04:41:58;5.60;99.90
41427;DHT22;27171;51.812;19.514;2023-12-20T04:44:59;5.70;99.90
41427;DHT22;27171;51.812;19.514;2023-12-20T04:48:01;5.60;99.90
41427;DHT22;27171;51.812;19.514;2023-12-20T04:51:02;5.60;99.90
41427;DHT22;27171;51.812;19.514;2023-12-20T04:54:03;5.60;99.90
41427;DHT22;27171;51.812;19.514;2023-12-20T04:57:04;5.60;99.90
41427;DHT22;27171;51.812;19.514;2023-12-20T05:00:05;5.60;99.90
41427;DHT22;27171;51.812;19.514;2023-12-20T05:03:06;5.60;99.90
41427;DHT22;27171;51.812;19.514;2023-12-20T05:06:07;5.50;99.90
41427;DHT22;27171;51.812;19.514;2023-12-20T05:09:08;5.60;99.90
41427;DHT22;27171;51.812;19.514;2023-12-20T05:12:09;5.50;99.90
41427;DHT22;27171;51.812;19.514;2023-12-20T05:15:10;5.50;99.90
41427;DHT22;27171;51.812;19.514;2023-12-20T05:18:11;5.50;99.90
41427;DHT22;27171;51.812;19.514;2023-12-20T05:21:11;5.50;99.90
41427;DHT22;27171;51.812;19.514;2023-12-20T05:24:12;5.50;99.90
41427;DHT22;27171;51.812;19.514;2023-12-20T05:27:13;5.50;99.90
41427;DHT22;27171;51.812;19.514;2023-12-20T05:30:14;5.50;99.90
41427;DHT22;27171;51.812;19.514;2023-12-20T05:33:15;5.50;99.90
41427;DHT22;27171;51.812;19.514;2023-12-20T05:36:16;5.50;99.90
41427;DHT22;27171;51.812;19.514;2023-12-20T05:39:17;5.50;99.90
41427;DHT22;27171;51.812;19.514;2023-12-20T05:42:18;5.50;99.90
41427;DHT22;27171;51.812;19.514;2023-12-20T05:45:19;5.40;99.90
41427;DHT22;27171;51.812;19.514;2023-12-20T05:48:19;5.40;99.90
41427;DHT22;27171;51.812;19.514;2023-12-20T05:51:20;5.40;99.90
41427;DHT22;27171;51.812;19.514;2023-12-20T05:54:21;5.40;99.90
41427;DHT22;27171;51.812;19.514;2023-12-20T05:57:22;5.40;99.90
41427;DHT22;27171;51.812;19.514;2023-12-20T06:00:23;5.40;99.90
41427;DHT22;27171;51.812;19.514;2023-12-20T06:03:24;5.40;99.90
41427;DHT22;27171;51.812;19.514;2023-12-20T06:06:25;5.40;99.90
41427;DHT22;27171;51.812;19.514;2023-12-20T06:09:29;5.40;99.90
41427;DHT22;27171;51.812;19.514;2023-12-20T06:12:29;5.40;99.90
41427;DHT22;27171;51.812;19.514;2023-12-20T06:15:30;5.40;99.90
41427;DHT22;27171;51.812;19.514;2023-12-20T06:18:31;5.40;99.90
41427;DHT22;27171;51.812;19.514;2023-12-20T06:21:32;5.40;99.90
41427;DHT22;27171;51.812;19.514;2023-12-20T06:24:33;5.30;99.90
41427;DHT22;27171;51.812;19.514;2023-12-20T06:27:34;5.30;99.90
41427;DHT22;27171;51.812;19.514;2023-12-20T06:30:35;5.30;99.90
41427;DHT22;27171;51.812;19.514;2023-12-20T06:33:36;5.30;99.90
41427;DHT22;27171;51.812;19.514;2023-12-20T06:36:37;5.30;99.90
41427;DHT22;27171;51.812;19.514;2023-12-20T06:39:38;5.30;99.90
41427;DHT22;27171;51.812;19.514;2023-12-20T06:42:39;5.30;99.90
41427;DHT22;27171;51.812;19.514;2023-12-20T06:45:40;5.30;99.90
41427;DHT22;27171;51.812;19.514;2023-12-20T06:48:40;5.30;99.90
41427;DHT22;27171;51.812;19.514;2023-12-20T06:51:41;5.30;99.90
41427;DHT22;27171;51.812;19.514;2023-12-20T06:54:42;5.20;99.90
41427;DHT22;27171;51.812;19.514;2023-12-20T06:57:43;5.20;99.90
41427;DHT22;27171;51.812;19.514;2023-12-20T07:00:44;5.30;99.90
41427;DHT22;27171;51.812;19.514;2023-12-20T07:03:45;5.20;99.90
41427;DHT22;27171;51.812;19.514;2023-12-20T07:06:46;5.30;99.90
41427;DHT22;27171;51.812;19.514;2023-12-20T07:09:46;5.30;99.90
41427;DHT22;27171;51.812;19.514;2023-12-20T07:12:47;5.30;99.90
41427;DHT22;27171;51.812;19.514;2023-12-20T07:15:48;5.30;99.90
41427;DHT22;27171;51.812;19.514;2023-12-20T07:18:49;5.30;99.90
41427;DHT22;27171;51.812;19.514;2023-12-20T07:21:50;5.30;99.90
41427;DHT22;27171;51.812;19.514;2023-12-20T07:24:51;5.30;99.90
41427;DHT22;27171;51.812;19.514;2023-12-20T07:27:52;5.30;99.90
41427;DHT22;27171;51.812;19.514;2023-12-20T07:30:53;5.30;99.90
41427;DHT22;27171;51.812;19.514;2023-12-20T07:33:54;5.30;99.90
41427;DHT22;27171;51.812;19.514;2023-12-20T07:36:55;5.30;99.90
41427;DHT22;27171;51.812;19.514;2023-12-20T07:39:56;5.20;99.90
41427;DHT22;27171;51.812;19.514;2023-12-20T07:42:57;5.20;99.90
41427;DHT22;27171;51.812;19.514;2023-12-20T07:46:01;5.20;99.90
41427;DHT22;27171;51.812;19.514;2023-12-20T07:49:04;5.30;99.90
41427;DHT22;27171;51.812;19.514;2023-12-20T07:52:05;5.30;99.90
41427;DHT22;27171;51.812;19.514;2023-12-20T07:55:06;5.30;99.90
41427;DHT22;27171;51.812;19.514;2023-12-20T07:58:07;5.20;99.90
41427;DHT22;27171;51.812;19.514;2023-12-20T08:01:09;5.20;99.90
41427;DHT22;27171;51.812;19.514;2023-12-20T08:04:10;5.30;99.90
41427;DHT22;27171;51.812;19.514;2023-12-20T08:07:10;5.30;99.90
41427;DHT22;27171;51.812;19.514;2023-12-20T08:10:11;5.30;99.90
41427;DHT22;27171;51.812;19.514;2023-12-20T08:13:12;5.20;99.90
41427;DHT22;27171;51.812;19.514;2023-12-20T08:16:13;5.30;99.90
41427;DHT22;27171;51.812;19.514;2023-12-20T08:19:14;5.20;99.90
41427;DHT22;27171;51.812;19.514;2023-12-20T08:22:15;5.30;99.90
41427;DHT22;27171;51.812;19.514;2023-12-20T08:25:16;5.30;99.90
41427;DHT22;27171;51.812;19.514;2023-12-20T08:28:16;5.30;99.90
41427;DHT22;27171;51.812;19.514;2023-12-20T08:31:17;5.30;99.90
41427;DHT22;27171;51.812;19.514;2023-12-20T08:34:19;5.30;99.90
41427;DHT22;27171;51.812;19.514;2023-12-20T08:37:19;5.30;99.90
41427;DHT22;27171;51.812;19.514;2023-12-20T08:40:21;5.30;99.90
41427;DHT22;27171;51.812;19.514;2023-12-20T08:43:21;5.30;99.90
41427;DHT22;27171;51.812;19.514;2023-12-20T08:46:22;5.30;99.90
41427;DHT22;27171;51.812;19.514;2023-12-20T08:49:23;5.30;99.90
41427;DHT22;27171;51.812;19.514;2023-12-20T08:52:24;5.30;99.90
41427;DHT22;27171;51.812;19.514;2023-12-20T08:55:25;5.30;99.90
41427;DHT22;27171;51.812;19.514;2023-12-20T08:58:26;5.30;99.90
41427;DHT22;27171;51.812;19.514;2023-12-20T09:01:27;5.30;99.90
41427;DHT22;27171;51.812;19.514;2023-12-20T09:04:28;5.30;99.90
41427;DHT22;27171;51.812;19.514;2023-12-20T09:07:29;5.40;99.90
41427;DHT22;27171;51.812;19.514;2023-12-20T09:10:30;5.40;99.90
41427;DHT22;27171;51.812;19.514;2023-12-20T09:13:31;5.40;99.90
41427;DHT22;27171;51.812;19.514;2023-12-20T09:16:31;5.40;99.90
41427;DHT22;27171;51.812;19.514;2023-12-20T09:19:32;5.40;99.90
41427;DHT22;27171;51.812;19.514;2023-12-20T09:22:33;5.40;99.90
41427;DHT22;27171;51.812;19.514;2023-12-20T09:25:34;5.50;99.90
41427;DHT22;27171;51.812;19.514;2023-12-20T09:28:35;5.40;99.90
41427;DHT22;27171;51.812;19.514;2023-12-20T09:31:36;5.50;99.90
41427;DHT22;27171;51.812;19.514;2023-12-20T09:34:37;5.50;99.90
41427;DHT22;27171;51.812;19.514;2023-12-20T09:37:38;5.50;99.90
41427;DHT22;27171;51.812;19.514;2023-12-20T09:40:41;5.50;99.90
41427;DHT22;27171;51.812;19.514;2023-12-20T09:43:42;5.50;99.90
41427;DHT22;27171;51.812;19.514;2023-12-20T09:46:43;5.50;99.90
41427;DHT22;27171;51.812;19.514;2023-12-20T09:49:44;5.50;99.90
41427;DHT22;27171;51.812;19.514;2023-12-20T09:52:46;5.50;99.90
41427;DHT22;27171;51.812;19.514;2023-12-20T09:55:49;5.50;99.90
41427;DHT22;27171;51.812;19.514;2023-12-20T09:58:49;5.50;99.90
41427;DHT22;27171;51.812;19.514;2023-12-20T10:01:50;5.50;99.90
41427;DHT22;27171;51.812;19.514;2023-12-20T10:04:54;5.50;99.90
41427;DHT22;27171;51.812;19.514;2023-12-20T10:07:55;5.40;99.90
41427;DHT22;27171;51.812;19.514;2023-12-20T10:10:56;5.40;99.90
41427;DHT22;27171;51.812;19.514;2023-12-20T10:14:00;5.40;99.90
41427;DHT22;27171;51.812;19.514;2023-12-20T10:17:05;5.40;99.90
41427;DHT22;27171;51.812;19.514;2023-12-20T10:20:06;5.40;99.90
41427;DHT22;27171;51.812;19.514;2023-12-20T10:23:07;5.40;99.90
41427;DHT22;27171;51.812;19.514;2023-12-20T10:26:08;5.40;99.90
41427;DHT22;27171;51.812;19.514;2023-12-20T10:29:09;5.40;99.90
41427;DHT22;27171;51.812;19.514;2023-12-20T10:35:25;5.40;99.90
41427;DHT22;27171;51.812;19.514;2023-12-20T10:38:26;5.40;99.90
41427;DHT22;27171;51.812;19.514;2023-12-20T10:41:27;5.40;99.90
41427;DHT22;27171;51.812;19.514;2023-12-20T10:44:28;5.40;99.90
41427;DHT22;27171;51.812;19.514;2023-12-20T10:47:30;5.30;99.90
41427;DHT22;27171;51.812;19.514;2023-12-20T10:50:31;5.30;99.90
41427;DHT22;27171;51.812;19.514;2023-12-20T10:53:32;5.30;99.90
41427;DHT22;27171;51.812;19.514;2023-12-20T10:56:34;5.30;99.90
41427;DHT22;27171;51.812;19.514;2023-12-20T10:59:36;5.40;99.90
41427;DHT22;27171;51.812;19.514;2023-12-20T11:02:39;5.40;99.90
41427;DHT22;27171;51.812;19.514;2023-12-20T11:05:44;5.40;99.90
41427;DHT22;27171;51.812;19.514;2023-12-20T11:15:18;5.40;99.90
41427;DHT22;27171;51.812;19.514;2023-12-20T11:18:19;5.40;99.90
41427;DHT22;27171;51.812;19.514;2023-12-20T11:21:20;5.40;99.90
41427;DHT22;27171;51.812;19.514;2023-12-20T11:24:21;5.40;99.90
41427;DHT22;27171;51.812;19.514;2023-12-20T11:27:22;5.40;99.90
41427;DHT22;27171;51.812;19.514;2023-12-20T11:30:24;5.40;99.90
41427;DHT22;27171;51.812;19.514;2023-12-20T11:33:26;5.40;99.90
41427;DHT22;27171;51.812;19.514;2023-12-20T11:36:27;5.40;99.90
41427;DHT22;27171;51.812;19.514;2023-12-20T11:39:33;5.40;99.90
41427;DHT22;27171;51.812;19.514;2023-12-20T11:42:44;5.50;99.90
41427;DHT22;27171;51.812;19.514;2023-12-20T11:45:51;5.50;99.90
41427;DHT22;27171;51.812;19.514;2023-12-20T11:48:52;5.50;99.90
41427;DHT22;27171;51.812;19.514;2023-12-20T11:51:53;5.40;99.90
41427;DHT22;27171;51.812;19.514;2023-12-20T11:54:53;5.40;99.90
41427;DHT22;27171;51.812;19.514;2023-12-20T11:57:54;5.40;99.90
41427;DHT22;27171;51.812;19.514;2023-12-20T12:00:55;5.40;99.90
41427;DHT22;27171;51.812;19.514;2023-12-20T12:04:06;5.40;99.90
41427;DHT22;27171;51.812;19.514;2023-12-20T12:07:06;5.40;99.90
41427;DHT22;27171;51.812;19.514;2023-12-20T12:10:07;5.40;99.90
41427;DHT22;27171;51.812;19.514;2023-12-20T12:13:08;5.40;99.90
41427;DHT22;27171;51.812;19.514;2023-12-20T12:16:09;5.40;99.90
41427;DHT22;27171;51.812;19.514;2023-12-20T12:19:20;5.30;99.90
41427;DHT22;27171;51.812;19.514;2023-12-20T12:22:21;5.30;99.90
41427;DHT22;27171;51.812;19.514;2023-12-20T12:25:22;5.40;99.90
41427;DHT22;27171;51.812;19.514;2023-12-20T12:28:25;5.40;99.90
41427;DHT22;27171;51.812;19.514;2023-12-20T12:31:26;5.40;99.90
41427;DHT22;27171;51.812;19.514;2023-12-20T12:34:27;5.40;99.90
41427;DHT22;27171;51.812;19.514;2023-12-20T12:37:28;5.40;99.90
41427;DHT22;27171;51.812;19.514;2023-12-20T12:40:30;5.40;99.90
41427;DHT22;27171;51.812;19.514;2023-12-20T12:43:35;5.30;99.90
41427;DHT22;27171;51.812;19.514;2023-12-20T12:46:36;5.30;99.90
41427;DHT22;27171;51.812;19.514;2023-12-20T12:49:37;5.30;99.90
41427;DHT22;27171;51.812;19.514;2023-12-20T12:52:38;5.30;99.90
41427;DHT22;27171;51.812;19.514;2023-12-20T12:55:39;5.30;99.90
41427;DHT22;27171;51.812;19.514;2023-12-20T12:58:40;5.20;99.90
41427;DHT22;27171;51.812;19.514;2023-12-20T13:01:40;5.20;99.90
41427;DHT22;27171;51.812;19.514;2023-12-20T13:04:41;5.20;99.90
41427;DHT22;27171;51.812;19.514;2023-12-20T13:07:43;5.20;99.90
41427;DHT22;27171;51.812;19.514;2023-12-20T13:10:44;5.20;99.90
41427;DHT22;27171;51.812;19.514;2023-12-20T13:13:44;5.20;99.90
41427;DHT22;27171;51.812;19.514;2023-12-20T13:16:45;5.20;99.90
41427;DHT22;27171;51.812;19.514;2023-12-20T13:19:46;5.20;99.90
41427;DHT22;27171;51.812;19.514;2023-12-20T13:22:47;5.20;99.90
41427;DHT22;27171;51.812;19.514;2023-12-20T13:25:48;5.10;99.90
41427;DHT22;27171;51.812;19.514;2023-12-20T13:28:49;5.10;99.90
41427;DHT22;27171;51.812;19.514;2023-12-20T13:31:51;5.10;99.90
41427;DHT22;27171;51.812;19.514;2023-12-20T13:34:51;5.10;99.90
41427;DHT22;27171;51.812;19.514;2023-12-20T13:37:52;5.10;99.90
41427;DHT22;27171;51.812;19.514;2023-12-20T13:40:53;5.00;99.90
41427;DHT22;27171;51.812;19.514;2023-12-20T13:43:54;5.00;99.90
41427;DHT22;27171;51.812;19.514;2023-12-20T13:46:56;5.00;99.90
41427;DHT22;27171;51.812;19.514;2023-12-20T13:49:57;5.00;99.90
41427;DHT22;27171;51.812;19.514;2023-12-20T13:52:58;5.00;99.90
41427;DHT22;27171;51.812;19.514;2023-12-20T13:55:58;5.00;99.90
41427;DHT22;27171;51.812;19.514;2023-12-20T13:58:59;4.90;99.90
41427;DHT22;27171;51.812;19.514;2023-12-20T14:02:00;5.00;99.90
41427;DHT22;27171;51.812;19.514;2023-12-20T14:05:01;4.90;99.90
41427;DHT22;27171;51.812;19.514;2023-12-20T14:08:02;4.90;99.90
41427;DHT22;27171;51.812;19.514;2023-12-20T14:11:03;4.90;99.90
41427;DHT22;27171;51.812;19.514;2023-12-20T14:14:04;4.90;99.90
41427;DHT22;27171;51.812;19.514;2023-12-20T14:17:05;4.90;99.90
41427;DHT22;27171;51.812;19.514;2023-12-20T14:20:06;4.90;99.90
41427;DHT22;27171;51.812;19.514;2023-12-20T14:23:07;4.90;99.90
41427;DHT22;27171;51.812;19.514;2023-12-20T14:26:08;4.90;99.90
41427;DHT22;27171;51.812;19.514;2023-12-20T14:29:09;4.90;99.90
41427;DHT22;27171;51.812;19.514;2023-12-20T14:32:10;4.90;99.90
41427;DHT22;27171;51.812;19.514;2023-12-20T14:35:11;4.90;99.90
41427;DHT22;27171;51.812;19.514;2023-12-20T14:38:12;4.90;99.90
41427;DHT22;27171;51.812;19.514;2023-12-20T14:41:13;4.90;99.90
41427;DHT22;27171;51.812;19.514;2023-12-20T14:44:14;4.90;99.90
41427;DHT22;27171;51.812;19.514;2023-12-20T14:47:15;4.90;99.90
41427;DHT22;27171;51.812;19.514;2023-12-20T14:50:16;4.90;99.90
41427;DHT22;27171;51.812;19.514;2023-12-20T14:53:17;4.90;99.90
41427;DHT22;27171;51.812;19.514;2023-12-20T14:56:18;4.90;99.90
41427;DHT22;27171;51.812;19.514;2023-12-20T14:59:19;4.90;99.90
41427;DHT22;27171;51.812;19.514;2023-12-20T15:02:19;4.90;99.90
41427;DHT22;27171;51.812;19.514;2023-12-20T15:05:20;4.80;99.90
41427;DHT22;27171;51.812;19.514;2023-12-20T15:08:21;4.80;99.90
41427;DHT22;27171;51.812;19.514;2023-12-20T15:11:22;4.80;99.90
41427;DHT22;27171;51.812;19.514;2023-12-20T15:14:23;4.90;99.90
41427;DHT22;27171;51.812;19.514;2023-12-20T15:17:24;4.80;99.90
41427;DHT22;27171;51.812;19.514;2023-12-20T15:20:25;4.80;99.90
41427;DHT22;27171;51.812;19.514;2023-12-20T15:23:25;4.80;99.90
41427;DHT22;27171;51.812;19.514;2023-12-20T15:26:26;4.80;99.90
41427;DHT22;27171;51.812;19.514;2023-12-20T15:29:27;4.80;99.90
41427;DHT22;27171;51.812;19.514;2023-12-20T15:32:28;4.80;99.90
41427;DHT22;27171;51.812;19.514;2023-12-20T15:35:29;4.80;99.90
41427;DHT22;27171;51.812;19.514;2023-12-20T15:38:30;4.70;99.90
41427;DHT22;27171;51.812;19.514;2023-12-20T15:41:31;4.70;99.90
41427;DHT22;27171;51.812;19.514;2023-12-20T15:44:32;4.70;99.90
41427;DHT22;27171;51.812;19.514;2023-12-20T15:47:35;4.70;99.90
41427;DHT22;27171;51.812;19.514;2023-12-20T15:50:36;4.70;99.90
41427;DHT22;27171;51.812;19.514;2023-12-20T15:53:40;4.70;99.90
41427;DHT22;27171;51.812;19.514;2023-12-20T15:56:41;4.60;99.90
41427;DHT22;27171;51.812;19.514;2023-12-20T15:59:42;4.60;99.90
41427;DHT22;27171;51.812;19.514;2023-12-20T16:02:43;4.60;99.90
41427;DHT22;27171;51.812;19.514;2023-12-20T16:05:44;4.70;99.90
41427;DHT22;27171;51.812;19.514;2023-12-20T16:08:45;4.70;99.90
41427;DHT22;27171;51.812;19.514;2023-12-20T16:11:46;4.70;99.90
41427;DHT22;27171;51.812;19.514;2023-12-20T16:14:46;4.70;99.90
41427;DHT22;27171;51.812;19.514;2023-12-20T16:17:48;4.70;99.90
41427;DHT22;27171;51.812;19.514;2023-12-20T16:20:49;4.70;99.90
41427;DHT22;27171;51.812;19.514;2023-12-20T16:23:50;4.70;99.90
41427;DHT22;27171;51.812;19.514;2023-12-20T16:26:51;4.70;99.90
41427;DHT22;27171;51.812;19.514;2023-12-20T16:29:52;4.70;99.90
41427;DHT22;27171;51.812;19.514;2023-12-20T16:32:53;4.70;99.90
41427;DHT22;27171;51.812;19.514;2023-12-20T16:35:55;4.70;99.90
41427;DHT22;27171;51.812;19.514;2023-12-20T16:38:56;4.70;99.90
41427;DHT22;27171;51.812;19.514;2023-12-20T16:41:56;4.70;99.90
41427;DHT22;27171;51.812;19.514;2023-12-20T16:44:57;4.80;99.90
41427;DHT22;27171;51.812;19.514;2023-12-20T16:47:58;4.70;99.90
41427;DHT22;27171;51.812;19.514;2023-12-20T16:50:59;4.70;99.90
41427;DHT22;27171;51.812;19.514;2023-12-20T16:54:00;4.70;99.90
41427;DHT22;27171;51.812;19.514;2023-12-20T16:57:01;4.70;99.90
41427;DHT22;27171;51.812;19.514;2023-12-20T17:00:02;4.70;99.90
41427;DHT22;27171;51.812;19.514;2023-12-20T17:03:04;4.70;99.90
41427;DHT22;27171;51.812;19.514;2023-12-20T17:06:05;4.70;99.90
41427;DHT22;27171;51.812;19.514;2023-12-20T17:09:06;4.70;99.90
41427;DHT22;27171;51.812;19.514;2023-12-20T17:12:07;4.70;99.90
41427;DHT22;27171;51.812;19.514;2023-12-20T17:15:08;4.70;99.90
41427;DHT22;27171;51.812;19.514;2023-12-20T17:18:09;4.70;99.90
41427;DHT22;27171;51.812;19.514;2023-12-20T17:21:10;4.70;99.90
41427;DHT22;27171;51.812;19.514;2023-12-20T17:24:11;4.70;99.90
41427;DHT22;27171;51.812;19.514;2023-12-20T17:27:12;4.70;99.90
41427;DHT22;27171;51.812;19.514;2023-12-20T17:30:13;4.80;99.90
41427;DHT22;27171;51.812;19.514;2023-12-20T17:33:15;4.80;99.90
41427;DHT22;27171;51.812;19.514;2023-12-20T17:36:16;4.80;99.90
41427;DHT22;27171;51.812;19.514;2023-12-20T17:39:17;4.80;99.90
41427;DHT22;27171;51.812;19.514;2023-12-20T17:42:18;4.80;99.90
41427;DHT22;27171;51.812;19.514;2023-12-20T17:45:19;4.80;99.90
41427;DHT22;27171;51.812;19.514;2023-12-20T17:48:19;4.70;99.90
41427;DHT22;27171;51.812;19.514;2023-12-20T17:51:20;4.70;99.90
41427;DHT22;27171;51.812;19.514;2023-12-20T17:54:21;4.70;99.90
41427;DHT22;27171;51.812;19.514;2023-12-20T17:57:22;4.70;99.90
41427;DHT22;27171;51.812;19.514;2023-12-20T18:00:24;4.80;99.90
41427;DHT22;27171;51.812;19.514;2023-12-20T18:03:25;4.80;99.90
41427;DHT22;27171;51.812;19.514;2023-12-20T18:06:26;4.80;99.90
41427;DHT22;27171;51.812;19.514;2023-12-20T18:09:27;4.80;99.90
41427;DHT22;27171;51.812;19.514;2023-12-20T18:12:28;4.80;99.90
41427;DHT22;27171;51.812;19.514;2023-12-20T18:15:29;4.80;99.90
41427;DHT22;27171;51.812;19.514;2023-12-20T18:18:30;4.80;99.90
41427;DHT22;27171;51.812;19.514;2023-12-20T18:21:31;4.80;99.90
41427;DHT22;27171;51.812;19.514;2023-12-20T18:24:31;4.80;99.90
41427;DHT22;27171;51.812;19.514;2023-12-20T18:27:32;4.80;99.90
41427;DHT22;27171;51.812;19.514;2023-12-20T18:30:33;4.80;99.90
41427;DHT22;27171;51.812;19.514;2023-12-20T18:33:34;4.90;99.90
41427;DHT22;27171;51.812;19.514;2023-12-20T18:36:35;4.80;99.90
41427;DHT22;27171;51.812;19.514;2023-12-20T18:39:39;4.90;99.90
41427;DHT22;27171;51.812;19.514;2023-12-20T18:42:40;4.90;99.90
41427;DHT22;27171;51.812;19.514;2023-12-20T18:45:41;4.90;99.90
41427;DHT22;27171;51.812;19.514;2023-12-20T18:48:42;4.90;99.90
41427;DHT22;27171;51.812;19.514;2023-12-20T18:51:43;4.90;99.90
41427;DHT22;27171;51.812;19.514;2023-12-20T18:54:44;4.90;99.90
41427;DHT22;27171;51.812;19.514;2023-12-20T18:57:45;5.00;99.90
41427;DHT22;27171;51.812;19.514;2023-12-20T19:00:46;5.00;99.90
41427;DHT22;27171;51.812;19.514;2023-12-20T19:03:47;5.00;99.90
41427;DHT22;27171;51.812;19.514;2023-12-20T19:06:48;5.00;99.90
41427;DHT22;27171;51.812;19.514;2023-12-20T19:09:49;4.90;99.90
41427;DHT22;27171;51.812;19.514;2023-12-20T19:12:50;4.90;99.90